Time;durP1;ratioP1;P1;durP2;ratioP2;P2;SDS_P1;SDS_P2;PMS_P1;PMS_P2;Temp;Humidity;BMP_temperature;BMP_pressure;BME280_temperature;BME280_humidity;BME280_pressure;Samples;Min_cycle;Max_cycle;Signal;HPM_P1;HPM_P2
2023/02/13 00:01:11;;;;;;;;;60.25;50.25;;;;;6.38;72.77;102541.16;4975796;28;45359;-67
2023/02/13 00:03:37;;;;;;;;;48.50;42.00;;;;;6.43;73.71;102542.06;4975834;28;45379;-69
2023/02/13 00:06:02;;;;;;;;;54.00;45.50;;;;;6.42;73.39;102535.06;4975429;28;46139;-69
2023/02/13 00:08:27;;;;;;;;;53.50;45.25;;;;;6.40;73.49;102529.81;4973176;28;45276;-76
2023/02/13 00:10:53;;;;;;;;;49.50;42.75;;;;;6.46;73.84;102543.81;4975608;28;45505;-76
2023/02/13 00:13:18;;;;;;;;;52.75;45.00;;;;;6.46;73.54;102539.47;4975953;28;45251;-77
2023/02/13 00:15:44;;;;;;;;;52.25;44.25;;;;;6.45;73.84;102545.56;4975809;28;45236;-68
2023/02/13 00:18:09;;;;;;;;;46.75;40.00;;;;;6.42;73.29;102549.00;4977965;28;45328;-77
2023/02/13 00:20:34;;;;;;;;;57.25;46.25;;;;;6.40;73.42;102549.88;4986547;28;45363;-76
2023/02/13 00:22:59;;;;;;;;;55.00;44.75;;;;;6.36;73.21;102548.97;4982968;28;45231;-77
2023/02/13 00:25:25;;;;;;;;;53.50;45.50;;;;;6.33;74.22;102542.81;4967636;28;45423;-72
2023/02/13 00:27:52;;;;;;;;;54.50;46.00;;;;;6.29;73.59;102534.09;4974242;28;45289;-78
2023/02/13 00:30:18;;;;;;;;;51.25;44.50;;;;;6.31;73.87;102540.19;4975123;28;45506;-75
2023/02/13 00:32:43;;;;;;;;;55.50;46.50;;;;;6.31;73.39;102545.44;4977350;28;45566;-71
2023/02/13 00:35:09;;;;;;;;;51.25;43.50;;;;;6.31;73.42;102541.91;4973931;28;46023;-68
2023/02/13 00:37:34;;;;;;;;;49.00;42.50;;;;;6.21;73.29;102522.69;4975793;28;45440;-74
2023/02/13 00:40:00;;;;;;;;;51.00;42.75;;;;;6.28;73.70;102534.94;4975644;28;46081;-78
2023/02/13 00:42:25;;;;;;;;;54.00;45.25;;;;;6.25;74.16;102535.78;5025446;28;45336;-77
2023/02/13 00:44:51;;;;;;;;;48.00;41.75;;;;;6.25;73.59;102537.53;5080248;27;47208;-78
2023/02/13 00:47:17;;;;;;;;;52.50;45.00;;;;;6.27;73.47;102539.28;4991864;27;45316;-81
2023/02/13 00:49:43;;;;;;;;;50.00;42.00;;;;;6.19;73.61;102530.50;4974879;28;45421;-76
2023/02/13 00:52:08;;;;;;;;;52.00;45.00;;;;;6.23;73.84;102547.94;4973629;28;45300;-74
2023/02/13 00:54:33;;;;;;;;;53.00;43.75;;;;;6.18;74.22;102535.72;4974593;28;45224;-75
2023/02/13 00:56:59;;;;;;;;;53.00;44.75;;;;;6.20;74.91;102539.22;4974315;28;45354;-73
2023/02/13 00:59:24;;;;;;;;;56.25;46.25;;;;;6.20;73.79;102534.00;4973784;28;45414;-75
2023/02/13 01:01:50;;;;;;;;;53.25;45.00;;;;;6.17;73.90;102534.81;4974439;28;45364;-74
2023/02/13 01:04:15;;;;;;;;;51.00;43.75;;;;;6.16;74.66;102530.47;4973410;28;48731;-75
2023/02/13 01:06:40;;;;;;;;;54.25;44.25;;;;;6.14;74.11;102538.31;4974838;28;45327;-76
2023/02/13 01:09:05;;;;;;;;;49.50;41.75;;;;;6.14;74.94;102540.91;4974450;28;45397;-76
2023/02/13 01:11:31;;;;;;;;;51.50;44.25;;;;;6.10;73.90;102539.13;4973900;28;45340;-77
2023/02/13 01:13:57;;;;;;;;;57.25;44.25;;;;;6.04;74.00;102520.78;4973091;28;48011;-73
2023/02/13 01:16:22;;;;;;;;;56.25;48.00;;;;;6.01;74.37;102514.63;4974305;28;45422;-74
2023/02/13 01:18:47;;;;;;;;;50.75;42.75;;;;;6.06;74.12;102518.16;4974360;28;45181;-73
2023/02/13 01:21:17;;;;;;;;;55.00;45.25;;;;;6.08;74.38;102527.78;4973311;28;45309;-75
2023/02/13 01:23:44;;;;;;;;;51.75;44.50;;;;;6.00;74.58;102518.97;4974584;28;46094;-74
2023/02/13 01:26:15;;;;;;;;;51.75;43.00;;;;;6.03;74.17;102523.38;4972903;28;45302;-75
2023/02/13 01:28:40;;;;;;;;;52.25;42.75;;;;;6.03;74.97;102529.47;4974756;28;45267;-75
2023/02/13 01:31:06;;;;;;;;;57.25;47.25;;;;;6.03;74.64;102525.97;4974051;28;52372;-71
2023/02/13 01:33:31;;;;;;;;;53.00;45.50;;;;;5.89;74.93;102505.78;4974265;28;45288;-75
2023/02/13 01:35:57;;;;;;;;;58.00;46.75;;;;;6.00;75.32;102529.41;4974534;28;45307;-76
2023/02/13 01:38:22;;;;;;;;;56.75;46.75;;;;;6.02;74.58;102538.19;4973711;28;45744;-77
2023/02/13 01:40:51;;;;;;;;;52.25;44.50;;;;;6.00;75.54;102526.81;4976722;28;45817;-69
2023/02/13 01:43:17;;;;;;;;;46.00;40.50;;;;;5.92;75.14;102515.41;4976073;28;46633;-77
2023/02/13 01:45:45;;;;;;;;;55.50;45.50;;;;;5.85;75.70;102501.38;4976990;27;45341;-75
2023/02/13 01:48:22;;;;;;;;;55.00;45.75;;;;;5.96;75.36;102528.50;4974274;28;45457;-76
2023/02/13 01:50:54;;;;;;;;;51.50;44.25;;;;;5.96;74.86;102528.50;4974907;28;45431;-76
2023/02/13 01:53:28;;;;;;;;;56.75;47.50;;;;;5.96;75.21;102530.25;4973950;28;46298;-75
2023/02/13 01:56:02;;;;;;;;;53.00;45.00;;;;;5.96;75.91;102522.41;4974188;28;45459;-76
2023/02/13 01:58:32;;;;;;;;;53.00;44.75;;;;;5.96;76.09;102525.88;4974298;28;45392;-76
2023/02/13 02:00:58;;;;;;;;;53.75;46.00;;;;;5.94;75.97;102524.13;4977485;28;45333;-77
2023/02/13 02:03:30;;;;;;;;;48.50;42.50;;;;;5.96;75.83;102525.03;4982761;28;45420;-77
2023/02/13 02:05:58;;;;;;;;;57.00;47.25;;;;;5.90;75.97;102515.38;4985467;28;45541;-76
2023/02/13 02:08:24;;;;;;;;;51.25;44.00;;;;;5.92;76.34;102521.50;4985635;28;45331;-76
2023/02/13 02:10:49;;;;;;;;;50.50;42.75;;;;;5.95;76.42;102523.28;4975842;28;45727;-73
2023/02/13 02:13:18;;;;;;;;;49.50;42.00;;;;;5.85;76.31;102502.28;4975349;28;45796;-76
2023/02/13 02:15:45;;;;;;;;;50.75;43.75;;;;;5.96;76.81;102530.25;4974321;28;45619;-76
2023/02/13 02:18:19;;;;;;;;;53.00;45.50;;;;;5.98;77.03;102531.16;4974107;28;45377;-75
2023/02/13 02:21:08;;;;;;;;;51.00;43.50;;;;;5.98;76.94;102528.53;4973719;28;45490;-73
2023/02/13 02:23:55;;;;;;;;;49.25;42.00;;;;;5.98;76.84;102520.69;4973624;28;46198;-68
2023/02/13 02:26:29;;;;;;;;;53.00;43.75;;;;;5.99;76.91;102523.31;4974060;28;45734;-73
2023/02/13 02:29:16;;;;;;;;;49.75;39.75;;;;;5.98;77.06;102523.31;4973929;28;45220;-72
2023/02/13 02:32:13;;;;;;;;;52.00;43.25;;;;;5.97;77.23;102525.03;4972701;28;45200;-73
2023/02/13 02:35:03;;;;;;;;;49.25;42.00;;;;;5.97;77.91;102526.78;4971996;28;48225;-76
2023/02/13 02:37:37;;;;;;;;;50.25;42.75;;;;;5.95;77.63;102520.66;4973439;28;45271;-74
2023/02/13 02:40:38;;;;;;;;;47.25;41.25;;;;;5.74;77.46;102474.28;4973500;28;45401;-73
2023/02/13 02:43:12;;;;;;;;;55.25;46.25;;;;;5.87;77.20;102494.44;4973754;28;45470;-71
2023/02/13 02:45:52;;;;;;;;;59.75;50.75;;;;;5.95;77.61;102505.84;4973480;28;45459;-73
2023/02/13 02:51:23;;;;;;;;;52.75;45.00;;;;;5.94;76.99;102509.31;4977437;28;45360;-71
2023/02/13 02:57:08;;;;;;;;;55.75;47.75;;;;;5.90;77.10;102502.31;4971632;28;45502;-73
2023/02/13 03:08:09;;;;;;;;;54.25;45.75;;;;;5.84;77.69;102494.41;4972918;28;45787;-70
2023/02/13 03:13:38;;;;;;;;;59.75;49.00;;;;;5.88;76.92;102508.41;4976592;28;45368;-72
2023/02/13 03:22:19;;;;;;;;;55.75;47.25;;;;;5.83;77.20;102511.84;4972900;28;45330;-75
2023/02/13 03:25:02;;;;;;;;;60.25;50.00;;;;;5.83;76.63;102513.56;4973383;28;45302;-76
2023/02/13 03:31:07;;;;;;;;;57.75;48.75;;;;;5.77;76.58;102511.75;4973062;28;45251;-73
2023/02/13 03:33:54;;;;;;;;;58.00;49.00;;;;;5.74;77.19;102513.47;4973136;28;45182;-76
2023/02/13 03:39:46;;;;;;;;;60.75;50.00;;;;;5.72;77.81;102516.03;4974222;28;45522;-76
2023/02/13 03:42:32;;;;;;;;;58.00;49.25;;;;;5.70;76.88;102516.03;4973725;28;46302;-71
2023/02/13 03:47:54;;;;;;;;;58.75;49.75;;;;;5.67;78.04;102516.00;4976242;28;45472;-75
2023/02/13 03:50:20;;;;;;;;;52.25;43.75;;;;;5.66;77.33;102511.63;4976922;28;45246;-71
2023/02/13 03:52:56;;;;;;;;;54.75;46.00;;;;;5.66;77.54;102511.63;4975429;28;45468;-71
2023/02/13 04:01:11;;;;;;;;;50.25;43.50;;;;;5.58;78.03;102492.41;4975858;28;45311;-71
2023/02/13 04:03:51;;;;;;;;;55.00;46.25;;;;;5.67;78.65;102500.34;4977638;28;45409;-73
2023/02/13 04:06:22;;;;;;;;;54.75;43.50;;;;;5.67;78.77;102502.94;4975474;28;45456;-72
2023/02/13 04:08:48;;;;;;;;;52.00;43.75;;;;;5.69;78.27;102513.41;4975113;28;45349;-76
2023/02/13 04:11:22;;;;;;;;;54.50;45.75;;;;;5.67;78.67;102508.16;4957796;28;45207;-75
2023/02/13 04:13:55;;;;;;;;;55.75;47.25;;;;;5.65;78.38;102507.28;4974848;28;45272;-77
2023/02/13 04:16:27;;;;;;;;;50.75;43.00;;;;;5.68;79.10;102511.63;4975168;28;45410;-76
2023/02/13 04:18:55;;;;;;;;;50.00;41.50;;;;;5.66;78.98;102524.69;4975563;28;45367;-75
2023/02/13 04:21:21;;;;;;;;;50.50;43.00;;;;;5.60;78.31;102508.97;4974576;28;45563;-75
2023/02/13 04:23:46;;;;;;;;;51.00;43.75;;;;;5.67;78.71;102529.06;4975845;28;46476;-77
2023/02/13 04:26:22;;;;;;;;;51.50;44.00;;;;;5.66;78.79;102518.59;4975716;28;48691;-76
2023/02/13 04:28:47;;;;;;;;;47.25;40.75;;;;;5.64;78.95;102528.13;4975608;28;45336;-76
2023/02/13 04:31:13;;;;;;;;;50.75;43.00;;;;;5.53;79.20;102502.78;4975245;28;45415;-73
2023/02/13 04:33:39;;;;;;;;;54.50;45.00;;;;;5.59;79.28;102508.94;4975229;28;45436;-71
2023/02/13 04:36:05;;;;;;;;;50.75;42.50;;;;;5.66;79.55;102526.41;4974943;28;45313;-69
2023/02/13 04:38:30;;;;;;;;;52.00;42.75;;;;;5.60;78.93;102519.41;4974917;28;45466;-74
2023/02/13 04:40:56;;;;;;;;;52.00;44.00;;;;;5.65;79.45;102522.06;4975606;28;45605;-73
2023/02/13 04:43:21;;;;;;;;;53.50;43.75;;;;;5.52;79.38;102487.97;4977249;28;46203;-70
2023/02/13 04:45:48;;;;;;;;;50.50;43.00;;;;;5.62;78.85;102508.97;4984988;28;44661;-77
2023/02/13 04:48:13;;;;;;;;;48.75;41.50;;;;;5.62;79.53;102517.69;4979024;28;45844;-74
2023/02/13 04:50:38;;;;;;;;;54.75;44.00;;;;;5.58;79.53;102515.00;4975338;28;45430;-76
2023/02/13 04:53:04;;;;;;;;;55.75;47.00;;;;;5.60;78.87;102514.19;4975112;28;46550;-69
2023/02/13 04:55:29;;;;;;;;;52.75;43.50;;;;;5.61;79.10;102508.09;4975853;28;45395;-73
2023/02/13 04:57:55;;;;;;;;;56.25;47.00;;;;;5.49;79.40;102490.53;4975036;28;45334;-68
2023/02/13 05:00:26;;;;;;;;;53.00;45.00;;;;;5.63;78.82;102502.88;4975004;28;45265;-69
2023/02/13 05:02:52;;;;;;;;;56.75;46.75;;;;;5.57;80.01;102495.88;4974750;28;46117;-69
2023/02/13 05:05:18;;;;;;;;;51.25;44.75;;;;;5.64;79.75;102518.59;4975243;28;45385;-68
2023/02/13 05:07:44;;;;;;;;;56.50;44.75;;;;;5.65;79.30;102511.59;4975214;28;45458;-74
2023/02/13 05:10:10;;;;;;;;;54.75;46.25;;;;;5.64;78.93;102510.75;4979971;28;45377;-73
2023/02/13 05:12:35;;;;;;;;;59.00;48.50;;;;;5.65;79.51;102511.59;4979924;28;45594;-74
2023/02/13 05:15:01;;;;;;;;;54.50;43.75;;;;;5.60;80.00;102497.63;4979652;28;45443;-77
2023/02/13 05:17:26;;;;;;;;;53.75;45.00;;;;;5.61;79.13;102502.88;4980054;28;45260;-73
2023/02/13 05:19:52;;;;;;;;;52.50;43.75;;;;;5.64;79.75;102502.91;4976297;28;45368;-76
2023/02/13 05:25:02;;;;;;;;;55.50;46.25;;;;;5.63;79.74;102498.56;4973214;28;45352;-77
2023/02/13 05:27:27;;;;;;;;;52.25;44.00;;;;;5.64;79.87;102495.09;4974687;28;45296;-75
2023/02/13 05:29:52;;;;;;;;;50.00;42.25;;;;;5.56;80.01;102491.50;4973097;28;45371;-74
2023/02/13 05:32:18;;;;;;;;;50.75;42.50;;;;;5.65;80.06;102502.06;4973883;28;56165;-75
2023/02/13 05:34:43;;;;;;;;;55.00;45.00;;;;;5.66;80.22;102503.81;4974550;28;53518;-70
2023/02/13 05:37:08;;;;;;;;;55.00;44.75;;;;;5.61;79.96;102487.22;4974545;28;45425;-71
2023/02/13 05:39:34;;;;;;;;;62.50;52.00;;;;;5.65;78.55;102498.56;4975365;28;45537;-69
2023/02/13 05:41:59;;;;;;;;;58.50;48.25;;;;;5.62;79.06;102494.19;4975468;28;46290;-72
2023/02/13 05:44:24;;;;;;;;;56.75;46.75;;;;;5.54;78.61;102494.09;4974013;28;45276;-69
2023/02/13 05:46:52;;;;;;;;;58.00;46.50;;;;;5.58;78.14;102500.22;4974287;28;45440;-70
2023/02/13 05:49:17;;;;;;;;;59.75;48.50;;;;;5.53;79.11;102500.16;4973197;28;45454;-72
2023/02/13 05:51:45;;;;;;;;;59.75;49.50;;;;;5.54;78.44;102508.88;4972790;28;48089;-75
2023/02/13 05:54:11;;;;;;;;;56.50;46.75;;;;;5.50;78.17;102502.75;4973984;28;45313;-71
2023/02/13 05:56:36;;;;;;;;;59.75;50.50;;;;;5.49;78.17;102505.34;4975384;28;45229;-72
2023/02/13 05:59:02;;;;;;;;;60.75;50.25;;;;;5.43;78.20;102495.69;4974721;28;45300;-72
2023/02/13 06:01:27;;;;;;;;;59.50;50.00;;;;;5.19;78.73;102459.72;4974177;28;45823;-75
2023/02/13 06:03:52;;;;;;;;;60.00;48.25;;;;;5.42;78.96;102501.78;4974801;28;45366;-76
2023/02/13 06:06:18;;;;;;;;;46.25;39.25;;;;;5.43;78.90;102506.13;4974034;28;45213;-77
2023/02/13 06:08:43;;;;;;;;;55.25;46.50;;;;;5.36;79.64;102489.53;4974644;28;45177;-76
2023/02/13 06:11:09;;;;;;;;;56.75;45.25;;;;;5.38;79.10;102494.75;4973755;28;45445;-75
2023/02/13 06:13:35;;;;;;;;;54.75;45.75;;;;;5.38;79.76;102499.97;4974096;28;45855;-74
2023/02/13 06:16:00;;;;;;;;;50.50;43.50;;;;;5.42;79.43;102509.59;4976273;28;45394;-73
2023/02/13 06:18:26;;;;;;;;;56.50;47.50;;;;;5.43;80.08;102510.50;4982343;28;45369;-73
2023/02/13 06:20:51;;;;;;;;;58.75;48.75;;;;;5.44;79.81;102512.25;4973933;28;46476;-77
2023/02/13 06:23:17;;;;;;;;;56.00;47.25;;;;;5.45;79.91;102516.59;4974173;28;45405;-72
2023/02/13 06:25:42;;;;;;;;;53.50;44.50;;;;;5.47;80.02;102518.38;4973926;28;45539;-70
2023/02/13 06:28:08;;;;;;;;;52.75;43.50;;;;;5.46;80.05;102516.63;4974134;28;45458;-71
2023/02/13 06:30:33;;;;;;;;;54.00;46.25;;;;;5.39;80.45;102502.63;4973901;28;47574;-76
2023/02/13 06:32:59;;;;;;;;;57.00;47.75;;;;;5.49;80.13;102529.69;4974072;28;45283;-76
2023/02/13 06:35:25;;;;;;;;;53.25;45.50;;;;;5.48;79.79;102525.34;4973537;28;45276;-77
2023/02/13 06:37:50;;;;;;;;;50.75;42.00;;;;;5.45;79.97;102514.00;4972407;28;45366;-74
2023/02/13 06:40:16;;;;;;;;;60.00;50.25;;;;;5.46;80.23;102516.63;4973655;28;45293;-79
2023/02/13 06:42:43;;;;;;;;;68.25;53.75;;;;;5.50;79.29;102521.00;4973589;28;45304;-77
2023/02/13 06:45:09;;;;;;;;;62.75;50.75;;;;;5.46;79.12;102523.59;4973719;28;45378;-76
2023/02/13 06:47:35;;;;;;;;;68.00;55.25;;;;;5.43;78.54;102520.94;4987771;28;45442;-71
2023/02/13 06:50:00;;;;;;;;;65.25;52.25;;;;;5.39;78.37;102520.91;4972801;28;46397;-73
2023/02/13 06:52:26;;;;;;;;;60.50;49.25;;;;;5.36;78.60;102526.09;4973148;28;45393;-76
2023/02/13 06:54:52;;;;;;;;;63.50;52.25;;;;;5.28;78.75;102525.06;4971512;28;45422;-77
2023/02/13 06:57:17;;;;;;;;;65.75;54.75;;;;;5.19;77.77;102514.50;4973497;28;45341;-77
2023/02/13 06:59:43;;;;;;;;;71.25;55.50;;;;;5.24;77.95;102525.88;4972070;28;46096;-74
2023/02/13 07:02:10;;;;;;;;;61.50;51.75;;;;;5.14;78.42;102516.19;4997272;28;45448;-78
2023/02/13 07:04:35;;;;;;;;;71.25;56.00;;;;;5.14;78.01;102518.78;4973103;28;45352;-71
2023/02/13 07:07:01;;;;;;;;;62.50;51.75;;;;;5.14;78.82;102529.22;4953460;28;45228;-71
2023/02/13 07:09:26;;;;;;;;;65.00;52.75;;;;;5.21;78.27;102537.19;4964452;28;46895;-73
2023/02/13 07:11:51;;;;;;;;;60.00;48.25;;;;;5.23;78.14;102545.91;4971986;28;45430;-75
2023/02/13 07:14:17;;;;;;;;;65.00;54.75;;;;;5.20;78.54;102550.19;4966253;28;52895;-72
2023/02/13 07:16:42;;;;;;;;;63.25;52.75;;;;;5.18;78.42;102546.69;4955328;28;46937;-75
2023/02/13 07:19:07;;;;;;;;;66.25;54.50;;;;;5.17;78.38;102556.25;4981807;28;45922;-73
2023/02/13 07:21:33;;;;;;;;;63.75;53.25;;;;;5.16;78.17;102553.59;4975788;28;45351;-75
2023/02/13 07:23:58;;;;;;;;;64.00;53.00;;;;;5.15;78.45;102551.84;4975219;28;45171;-72
2023/02/13 07:26:25;;;;;;;;;67.75;53.75;;;;;5.15;78.32;102562.28;4974383;28;45421;-72
2023/02/13 07:28:50;;;;;;;;;66.00;54.25;;;;;5.16;78.93;102569.25;4982497;28;45414;-74
2023/02/13 07:31:16;;;;;;;;;41.75;38.00;;;;;5.17;78.88;102564.09;4975906;28;45420;-69
2023/02/13 07:33:41;;;;;;;;;60.00;50.50;;;;;5.16;78.77;102562.31;4969415;28;46580;-70
2023/02/13 07:36:07;;;;;;;;;63.75;50.25;;;;;5.17;78.24;102560.56;4965034;28;50914;-71
2023/02/13 07:38:32;;;;;;;;;66.00;53.00;;;;;5.18;78.00;102572.78;4988915;27;47456;-71
2023/02/13 07:41:02;;;;;;;;;62.50;50.75;;;;;5.19;78.57;102570.19;4972926;28;45877;-71
2023/02/13 07:43:28;;;;;;;;;63.25;52.25;;;;;5.09;78.51;102548.31;4974519;28;45336;-71
2023/02/13 07:45:57;;;;;;;;;63.25;53.50;;;;;5.22;78.65;102577.19;4975895;28;45564;-70
2023/02/13 07:48:26;;;;;;;;;67.00;55.00;;;;;5.25;78.96;102572.00;4975410;28;46011;-70
2023/02/13 07:50:51;;;;;;;;;67.50;53.50;;;;;5.28;78.90;102564.22;4975409;27;45382;-71
2023/02/13 07:53:17;;;;;;;;;65.50;53.75;;;;;5.29;78.25;102573.78;4975436;28;45235;-70
2023/02/13 07:55:42;;;;;;;;;71.50;57.75;;;;;5.30;78.36;102564.25;4974911;28;54812;-71
2023/02/13 07:58:08;;;;;;;;;62.00;51.75;;;;;5.30;79.29;102562.53;4973746;28;48109;-70
2023/02/13 08:00:33;;;;;;;;;64.25;54.00;;;;;5.39;79.23;102562.66;4973348;28;45988;-70
2023/02/13 08:03:00;;;;;;;;;63.50;51.75;;;;;5.41;79.69;102554.81;4975240;28;45713;-70
2023/02/13 08:05:25;;;;;;;;;60.50;50.25;;;;;5.52;80.25;102562.81;4973617;28;45557;-70
2023/02/13 08:07:51;;;;;;;;;59.50;49.50;;;;;5.56;79.85;102565.47;4973406;28;45617;-71
2023/02/13 08:13:01;;;;;;;;;61.50;51.75;;;;;5.63;79.69;102563.81;4975290;28;45327;-71
2023/02/13 08:15:26;;;;;;;;;58.00;48.50;;;;;5.70;79.53;102572.59;4974674;27;45451;-68
2023/02/13 08:17:52;;;;;;;;;63.00;52.00;;;;;5.74;79.72;102576.13;4975733;28;46845;-71
2023/02/13 08:20:17;;;;;;;;;64.00;53.25;;;;;5.78;79.06;102573.56;4974296;28;62266;-70
2023/02/13 08:22:43;;;;;;;;;63.75;52.75;;;;;5.81;79.12;102567.50;4974615;28;45325;-71
2023/02/13 08:25:08;;;;;;;;;65.25;53.75;;;;;5.79;79.02;102561.41;4975522;28;45481;-70
2023/02/13 08:27:34;;;;;;;;;58.50;49.25;;;;;5.89;79.09;102567.63;4974458;28;46090;-70
2023/02/13 08:30:00;;;;;;;;;59.50;49.50;;;;;5.90;78.48;102570.22;4973836;28;45484;-70
2023/02/13 08:32:26;;;;;;;;;65.00;52.00;;;;;5.94;78.66;102564.19;4973847;28;45386;-71
2023/02/13 08:34:51;;;;;;;;;62.50;52.25;;;;;5.99;78.83;102579.91;4975217;28;45304;-71
2023/02/13 08:37:17;;;;;;;;;61.75;50.75;;;;;6.02;78.02;102571.25;4974648;28;46107;-73
2023/02/13 08:39:43;;;;;;;;;55.25;47.25;;;;;6.05;78.53;102574.78;4974641;27;45175;-71
2023/02/13 08:42:08;;;;;;;;;63.00;52.50;;;;;6.08;79.15;102579.16;4974747;28;45283;-70
2023/02/13 08:44:34;;;;;;;;;61.50;50.75;;;;;6.08;78.39;102576.53;4974594;28;45268;-69
2023/02/13 08:47:02;;;;;;;;;57.50;47.25;;;;;6.10;78.24;102570.50;4974636;28;45537;-70
2023/02/13 08:49:31;;;;;;;;;68.75;56.25;;;;;6.13;78.05;102578.34;4975805;28;45402;-71
2023/02/13 08:51:56;;;;;;;;;61.00;50.00;;;;;6.12;78.08;102570.50;4974750;28;45500;-71
2023/02/13 08:54:21;;;;;;;;;60.50;49.50;;;;;6.01;77.41;102551.22;4975605;28;45555;-70
2023/02/13 08:56:47;;;;;;;;;62.25;51.00;;;;;6.19;77.87;102577.53;4976291;28;45906;-71
2023/02/13 08:59:12;;;;;;;;;58.00;46.00;;;;;6.20;77.81;102578.44;4975741;28;45201;-69
2023/02/13 09:01:38;;;;;;;;;58.50;47.50;;;;;6.24;77.69;102580.22;4974129;28;45312;-72
2023/02/13 09:04:03;;;;;;;;;62.75;52.00;;;;;6.22;77.59;102580.19;4976773;28;45350;-71
2023/02/13 09:06:29;;;;;;;;;64.50;51.50;;;;;6.31;77.84;102581.13;4973733;28;46599;-70
2023/02/13 09:08:54;;;;;;;;;67.75;54.00;;;;;6.34;77.21;102583.78;4974895;28;45391;-70
2023/02/13 09:11:22;;;;;;;;;59.75;48.00;;;;;6.40;77.09;102583.84;4975493;28;45330;-70
2023/02/13 09:13:48;;;;;;;;;64.00;50.00;;;;;6.44;77.64;102583.03;4974066;28;45574;-70
2023/02/13 09:16:14;;;;;;;;;65.00;50.50;;;;;6.45;77.76;102578.66;4975538;28;45471;-70
2023/02/13 09:18:39;;;;;;;;;62.25;51.50;;;;;6.48;76.63;102582.19;4978340;28;45249;-71
2023/02/13 09:21:11;;;;;;;;;61.25;51.25;;;;;6.53;77.19;102580.50;4976791;28;45390;-70
2023/02/13 09:23:39;;;;;;;;;62.50;51.25;;;;;6.55;76.38;102577.88;4973876;28;45320;-71
2023/02/13 09:26:06;;;;;;;;;61.25;50.50;;;;;6.58;76.74;102580.53;4972937;28;47463;-70
2023/02/13 09:28:33;;;;;;;;;60.00;49.50;;;;;6.59;76.23;102579.66;4973296;28;45273;-71
2023/02/13 09:30:59;;;;;;;;;64.25;52.25;;;;;6.63;76.24;102585.81;4974451;28;45396;-70
2023/02/13 09:33:25;;;;;;;;;62.00;52.00;;;;;6.55;76.66;102570.91;4973045;28;45292;-70
2023/02/13 09:35:50;;;;;;;;;63.75;52.00;;;;;6.68;76.65;102586.72;4974026;28;45388;-70
2023/02/13 09:38:16;;;;;;;;;65.00;52.50;;;;;6.65;75.98;102576.22;4973826;28;45395;-69
2023/02/13 09:40:50;;;;;;;;;65.00;53.50;;;;;6.76;76.02;102585.03;4974060;28;45385;-71
2023/02/13 09:43:33;;;;;;;;;63.25;50.25;;;;;6.79;75.90;102590.28;4974485;28;45347;-71
2023/02/13 09:46:12;;;;;;;;;68.50;55.25;;;;;6.82;76.24;102584.19;4974287;28;45410;-71
2023/02/13 09:48:41;;;;;;;;;65.25;53.25;;;;;6.89;76.31;102592.97;4972399;28;45355;-71
2023/02/13 09:51:13;;;;;;;;;66.50;53.50;;;;;6.91;75.43;102594.75;4975493;28;45197;-70
2023/02/13 09:53:42;;;;;;;;;68.75;55.00;;;;;6.96;75.53;102590.44;4972660;28;45330;-71
2023/02/13 09:56:11;;;;;;;;;63.75;51.50;;;;;7.01;75.15;102596.56;4972343;28;47129;-71
2023/02/13 09:58:46;;;;;;;;;60.00;48.50;;;;;7.04;75.01;102593.09;4973877;28;45304;-71
2023/02/13 10:01:34;;;;;;;;;64.25;52.25;;;;;7.09;74.74;102596.63;4973203;28;45380;-72
2023/02/13 10:04:05;;;;;;;;;65.75;52.00;;;;;7.15;75.35;102603.63;4972568;28;45487;-71
2023/02/13 10:06:48;;;;;;;;;62.00;50.75;;;;;7.19;74.39;102600.19;4973464;28;45424;-70
2023/02/13 10:09:29;;;;;;;;;64.25;52.00;;;;;7.23;74.42;102590.59;4973814;28;45240;-71
2023/02/13 10:12:14;;;;;;;;;64.25;53.00;;;;;7.29;74.93;102588.00;4972421;28;45409;-70
2023/02/13 10:14:48;;;;;;;;;61.75;51.25;;;;;7.36;74.16;102594.16;4974371;28;45242;-71
2023/02/13 10:17:20;;;;;;;;;65.75;54.00;;;;;7.39;74.71;102592.41;4973423;28;45424;-71
2023/02/13 10:19:54;;;;;;;;;67.50;55.75;;;;;7.47;74.44;102591.63;4973764;28;45444;-71
2023/02/13 10:22:28;;;;;;;;;70.00;57.75;;;;;7.47;74.75;102582.00;4973375;28;45330;-70
2023/02/13 10:24:55;;;;;;;;;62.50;50.25;;;;;7.56;74.26;102581.19;4973855;28;45398;-70
2023/02/13 10:27:31;;;;;;;;;62.25;51.00;;;;;7.58;73.95;102582.94;4973612;28;45367;-70
2023/02/13 10:30:13;;;;;;;;;68.75;56.00;;;;;7.59;73.74;102584.69;4974013;28;45418;-68
2023/02/13 10:33:09;;;;;;;;;61.75;50.75;;;;;7.63;73.32;102587.31;4973815;28;45432;-69
2023/02/13 10:35:36;;;;;;;;;60.75;48.25;;;;;7.65;73.51;102589.09;4973743;28;45395;-72
2023/02/13 10:38:13;;;;;;;;;71.25;57.00;;;;;7.69;73.34;102580.38;4974292;28;47178;-71
2023/02/13 10:40:52;;;;;;;;;69.25;56.75;;;;;7.75;73.24;102584.75;4973776;28;45479;-72
2023/02/13 10:43:22;;;;;;;;;62.25;51.00;;;;;7.82;73.05;102585.66;4974002;28;45342;-70
2023/02/13 10:46:20;;;;;;;;;63.00;50.50;;;;;7.86;72.88;102582.16;4973597;28;45659;-73
2023/02/13 10:49:06;;;;;;;;;64.00;51.75;;;;;7.96;73.17;102585.72;5000978;28;45389;-71
2023/02/13 10:51:57;;;;;;;;;64.00;52.00;;;;;7.99;72.59;102570.00;4977482;27;45226;-70
2023/02/13 10:54:28;;;;;;;;;59.00;48.75;;;;;8.07;72.07;102575.25;4972199;28;45314;-69
2023/02/13 10:57:13;;;;;;;;;61.25;49.75;;;;;8.11;72.24;102572.66;4973346;28;45247;-71
2023/02/13 11:00:03;;;;;;;;;64.75;51.00;;;;;8.16;71.83;102567.38;4973018;28;45440;-69
2023/02/13 11:02:33;;;;;;;;;57.00;47.00;;;;;8.23;71.55;102563.91;4973184;28;45541;-71
2023/02/13 11:05:15;;;;;;;;;62.50;49.50;;;;;8.31;71.61;102569.19;4971770;28;45193;-70
2023/02/13 11:07:42;;;;;;;;;61.25;49.50;;;;;8.39;71.42;102563.91;4972755;28;45364;-70
2023/02/13 11:10:19;;;;;;;;;62.00;51.50;;;;;8.45;71.35;102558.69;4972445;28;47015;-71
2023/02/13 11:12:45;;;;;;;;;62.00;49.75;;;;;8.51;70.63;102552.63;4972657;28;45428;-70
2023/02/13 11:15:26;;;;;;;;;66.25;51.75;;;;;8.55;70.93;102547.38;4972772;28;45367;-70
2023/02/13 11:17:55;;;;;;;;;56.00;47.00;;;;;8.60;69.88;102548.25;4971791;28;45621;-70
2023/02/13 11:20:32;;;;;;;;;63.50;52.00;;;;;8.68;70.39;102553.47;4972958;28;46910;-69
2023/02/13 11:23:26;;;;;;;;;59.50;49.50;;;;;8.75;69.96;102546.50;4974002;28;45480;-71
2023/02/13 11:26:07;;;;;;;;;66.75;52.25;;;;;8.84;69.94;102538.59;4974783;28;45486;-71
2023/02/13 11:28:36;;;;;;;;;64.00;51.25;;;;;8.91;69.77;102534.19;4973572;28;45620;-70
2023/02/13 11:31:22;;;;;;;;;60.50;50.00;;;;;9.01;69.48;102538.59;4974859;28;45620;-71
2023/02/13 11:33:47;;;;;;;;;64.75;52.50;;;;;9.08;69.25;102526.31;4974452;28;45350;-69
2023/02/13 11:36:32;;;;;;;;;62.25;51.25;;;;;9.17;69.21;102528.03;4973549;28;45391;-71
2023/02/13 11:39:01;;;;;;;;;66.00;53.75;;;;;9.21;68.94;102524.53;4971440;28;45544;-70
2023/02/13 11:41:28;;;;;;;;;58.75;47.75;;;;;9.27;68.66;102521.00;4971013;28;48456;-69
2023/02/13 11:44:00;;;;;;;;;66.50;54.25;;;;;9.32;68.48;102521.84;4972452;28;45264;-69
2023/02/13 11:46:29;;;;;;;;;61.75;51.00;;;;;9.37;67.96;102516.59;4972867;28;45466;-71
2023/02/13 11:49:01;;;;;;;;;66.00;53.00;;;;;9.34;67.80;102507.84;4973355;28;45449;-69
2023/02/13 11:51:41;;;;;;;;;75.33;64.67;;;;;9.38;67.64;102507.84;4975389;27;46268;-69
2023/02/13 11:54:23;;;;;;;;;60.50;49.50;;;;;9.49;67.08;102506.03;4973520;28;45461;-71
2023/02/13 11:56:51;;;;;;;;;54.00;46.25;;;;;9.46;67.52;102498.16;4974270;27;45356;-70
2023/02/13 11:59:16;;;;;;;;;72.25;59.75;;;;;9.60;67.19;102508.63;4973650;28;45512;-73
2023/02/13 12:01:43;;;;;;;;;61.75;50.25;;;;;9.61;67.13;102503.34;4955552;28;46467;-71
2023/02/13 12:04:16;;;;;;;;;65.00;53.25;;;;;9.74;66.90;102511.16;4973501;28;45702;-69
2023/02/13 12:06:59;;;;;;;;;70.75;57.00;;;;;9.73;66.39;102496.25;4974370;28;45566;-70
2023/02/13 12:09:27;;;;;;;;;75.67;64.00;;;;;9.82;66.15;102505.88;4975170;28;45518;-69
2023/02/13 12:11:56;;;;;;;;;72.33;60.33;;;;;9.81;66.46;102501.50;4973757;28;45524;-69